KLWS/LWS METAR and TAF weather

Enter ICAO airport designator
Station Type Date Time Source
KLWS METAR 2019/10/21 21:56 UTC NOAA

KLWS 212156Z 00000KT 10SM BKN055 OVC070 14/05 A3022 RMK AO2 SLP235 T01390050


Station Type Date Time Source
KLWS Decoded METAR 2019/10/21 21:56 UTC NOAA

LEWISTON NEZ PERCE CO AIRPORT , ID, United States (KLWS) 46-22N 117-01W 438M
Oct 21, 2019 - 05:56 PM EDT / 2019.10.21 2156 UTC
Wind: Calm:0
Visibility: 10 mile(s):0
Sky conditions: overcast
Temperature: 57.0 F (13.9 C)
Dew Point: 41.0 F (5.0 C)
Relative Humidity: 54%
Pressure (altimeter): 30.22 in. Hg (1023 hPa)
ob: KLWS 212156Z 00000KT 10SM BKN055 OVC070 14/05 A3022 RMK AO2 SLP235 T01390050
cycle: 22

Station Type Date Time Source
KLWS TAF 2019/10/21 18:42 UTC NOAA

TAF KLWS 211738Z 2118/2218 VRB04KT P6SM BKN050 OVC080
FM212100 VRB04KT P6SM -SHRA OVC050
FM220300 14006KT P6SM -RA SCT020 OVC040
FM221000 22007G14KT P6SM -RA OVC040

Example: see airport list